Time;durP1;ratioP1;P1;durP2;ratioP2;P2;SDS_P1;SDS_P2;PMS_P1;PMS_P2;Temp;Humidity;BMP_temperature;BMP_pressure;BME280_temperature;BME280_humidity;BME280_pressure;Samples;Min_cycle;Max_cycle;Signal;HPM_P1;HPM_P2
2021/08/23 00:00:56;;;;;;;9.95;5.07;;;18.50;99.90;;;;;;5032213;28;20033;-72
2021/08/23 00:03:21;;;;;;;9.73;5.78;;;18.50;99.90;;;;;;5033209;28;20454;-72
2021/08/23 00:05:47;;;;;;;6.30;4.72;;;18.50;99.90;;;;;;5032979;28;20037;-72
2021/08/23 00:08:13;;;;;;;6.68;5.03;;;18.50;99.90;;;;;;5033471;28;20674;-72
2021/08/23 00:10:39;;;;;;;7.32;5.47;;;18.50;99.90;;;;;;5033002;28;20033;-72
2021/08/23 00:13:04;;;;;;;6.80;5.32;;;18.50;99.90;;;;;;5033065;28;20113;-72
2021/08/23 00:15:30;;;;;;;8.85;5.05;;;18.50;99.90;;;;;;5032915;28;20029;-73
2021/08/23 00:17:56;;;;;;;12.18;5.13;;;18.50;99.90;;;;;;5032869;28;20037;-72
2021/08/23 00:20:25;;;;;;;7.13;4.80;;;18.50;99.90;;;;;;5032921;28;20458;-72
2021/08/23 00:22:51;;;;;;;7.95;4.60;;;18.50;99.90;;;;;;5033070;28;20049;-72
2021/08/23 00:25:20;;;;;;;5.60;4.53;;;18.50;99.90;;;;;;5032768;28;20022;-73
2021/08/23 00:27:46;;;;;;;6.60;4.35;;;18.50;99.90;;;;;;5032464;28;20459;-72
2021/08/23 00:30:14;;;;;;;7.53;4.63;;;18.50;99.90;;;;;;5032347;28;20053;-73
2021/08/23 00:32:41;;;;;;;6.38;4.45;;;18.50;99.90;;;;;;5032432;28;20401;-73
2021/08/23 00:35:08;;;;;;;7.00;4.50;;;18.50;99.90;;;;;;5032772;28;20021;-73
2021/08/23 00:37:33;;;;;;;4.35;3.95;;;18.50;99.90;;;;;;5032428;28;20048;-73
2021/08/23 00:40:00;;;;;;;9.77;4.80;;;18.50;99.90;;;;;;5032408;28;20037;-73
2021/08/23 00:42:26;;;;;;;8.07;4.80;;;18.50;99.90;;;;;;5032522;28;20029;-73
2021/08/23 00:44:51;;;;;;;9.27;4.78;;;18.40;99.90;;;;;;5032211;28;20124;-73
2021/08/23 00:47:17;;;;;;;5.20;3.78;;;18.40;99.90;;;;;;5032460;28;20025;-73
2021/08/23 00:49:42;;;;;;;7.10;3.70;;;18.40;99.90;;;;;;5032777;28;20029;-73
2021/08/23 00:52:09;;;;;;;8.00;4.22;;;18.40;99.90;;;;;;5032104;28;20668;-73
2021/08/23 00:54:37;;;;;;;9.15;4.28;;;18.40;99.90;;;;;;5032041;28;20048;-73
2021/08/23 00:57:04;;;;;;;11.63;4.28;;;18.30;99.90;;;;;;5031797;28;20054;-73
2021/08/23 00:59:34;;;;;;;11.73;4.38;;;18.30;99.90;;;;;;5031840;28;20131;-73
2021/08/23 01:02:08;;;;;;;6.90;3.63;;;18.30;99.90;;;;;;5032174;28;20040;-73
2021/08/23 01:04:56;;;;;;;8.80;4.05;;;18.30;99.90;;;;;;5032092;28;20029;-73
2021/08/23 01:07:25;;;;;;;7.05;4.00;;;18.30;99.90;;;;;;5031977;28;20087;-73
2021/08/23 01:10:06;;;;;;;7.28;4.43;;;18.30;99.90;;;;;;5031794;28;20029;-73
2021/08/23 01:12:31;;;;;;;11.85;4.40;;;18.20;99.90;;;;;;5031681;28;20388;-73
2021/08/23 01:14:58;;;;;;;9.55;4.22;;;18.20;99.90;;;;;;5031953;28;20456;-72
2021/08/23 01:17:23;;;;;;;8.25;4.22;;;18.20;99.90;;;;;;5031869;28;20033;-72
2021/08/23 01:19:56;;;;;;;6.60;4.22;;;18.30;99.90;;;;;;5032073;28;20033;-72
2021/08/23 01:22:23;;;;;;;5.78;3.80;;;18.20;99.90;;;;;;5031847;28;20040;-72
2021/08/23 01:24:55;;;;;;;6.18;4.35;;;18.20;99.90;;;;;;5031675;28;20153;-72
2021/08/23 01:27:24;;;;;;;7.60;4.10;;;18.20;99.90;;;;;;5031898;28;20079;-72
2021/08/23 01:30:11;;;;;;;7.25;3.70;;;18.20;99.90;;;;;;5031474;28;20510;-72
2021/08/23 01:32:38;;;;;;;9.00;3.75;;;18.20;99.90;;;;;;5031675;28;20045;-70
2021/08/23 01:35:06;;;;;;;12.32;4.40;;;18.20;99.90;;;;;;5031847;28;20160;-72
2021/08/23 01:37:34;;;;;;;5.47;3.40;;;18.20;99.90;;;;;;5031446;28;20097;-73
2021/08/23 01:39:59;;;;;;;6.13;3.70;;;18.20;99.90;;;;;;5031310;28;20037;-71
2021/08/23 01:42:25;;;;;;;8.32;3.65;;;18.10;99.90;;;;;;5031515;28;20026;-72
2021/08/23 01:44:51;;;;;;;8.27;3.83;;;18.10;99.90;;;;;;5031218;28;20030;-72
2021/08/23 01:47:16;;;;;;;6.10;3.53;;;18.10;99.90;;;;;;5031820;28;20070;-72
2021/08/23 01:49:42;;;;;;;8.60;4.07;;;18.10;99.90;;;;;;5031620;28;20033;-72
2021/08/23 01:52:09;;;;;;;7.25;4.03;;;17.90;99.90;;;;;;5031181;28;20464;-72
2021/08/23 01:54:35;;;;;;;5.25;3.13;;;18.00;99.90;;;;;;5030077;28;20116;-72
2021/08/23 01:57:01;;;;;;;6.18;3.78;;;18.00;99.90;;;;;;5030940;28;20192;-71
2021/08/23 01:59:26;;;;;;;4.63;3.53;;;18.00;99.90;;;;;;5031000;28;20108;-71
2021/08/23 02:01:52;;;;;;;9.13;3.85;;;18.00;99.90;;;;;;5031399;28;20474;-71
2021/08/23 02:04:18;;;;;;;4.10;3.42;;;18.00;99.90;;;;;;5030936;28;20025;-72
2021/08/23 02:06:43;;;;;;;6.47;3.40;;;18.00;99.90;;;;;;5031104;28;20451;-72
2021/08/23 02:09:09;;;;;;;8.73;3.72;;;18.00;99.90;;;;;;5030807;28;20069;-72
2021/08/23 02:11:35;;;;;;;9.68;4.22;;;18.00;99.90;;;;;;5029785;28;20026;-72
2021/08/23 02:14:01;;;;;;;6.43;3.53;;;18.00;99.90;;;;;;5031301;28;20026;-72
2021/08/23 02:16:26;;;;;;;9.75;3.70;;;18.00;99.90;;;;;;5030869;28;20132;-72
2021/08/23 02:18:52;;;;;;;6.47;3.60;;;18.00;99.90;;;;;;5031297;28;20040;-72
2021/08/23 02:21:20;;;;;;;5.25;3.90;;;18.00;99.90;;;;;;5030954;28;20119;-72
2021/08/23 02:23:46;;;;;;;9.30;3.78;;;18.00;99.90;;;;;;5030524;28;20041;-72
2021/08/23 02:26:12;;;;;;;9.48;3.90;;;18.00;99.90;;;;;;5031164;28;20029;-72
2021/08/23 02:28:37;;;;;;;5.93;3.47;;;18.00;99.90;;;;;;5030802;28;20188;-72
2021/08/23 02:31:03;;;;;;;11.25;3.67;;;18.00;99.90;;;;;;5030786;28;20042;-72
2021/08/23 02:33:29;;;;;;;7.88;4.10;;;18.00;99.90;;;;;;5030591;28;20038;-72
2021/08/23 02:35:54;;;;;;;7.03;4.05;;;17.90;99.90;;;;;;5030592;28;20033;-72
2021/08/23 02:38:20;;;;;;;7.20;4.10;;;17.90;99.90;;;;;;5030525;28;20225;-72
2021/08/23 02:40:45;;;;;;;7.57;3.47;;;17.90;99.90;;;;;;5030850;28;20022;-72
2021/08/23 02:43:11;;;;;;;9.13;3.78;;;17.90;99.90;;;;;;5030560;28;20034;-72
2021/08/23 02:45:37;;;;;;;10.55;3.50;;;17.90;99.90;;;;;;5030520;28;20124;-73
2021/08/23 02:48:02;;;;;;;6.72;4.05;;;17.90;99.90;;;;;;5029502;28;20186;-72
2021/08/23 02:50:28;;;;;;;5.10;3.35;;;17.90;99.90;;;;;;5030482;28;20021;-72
2021/08/23 02:52:54;;;;;;;6.35;3.28;;;17.90;99.90;;;;;;5031002;28;20053;-73
2021/08/23 02:55:19;;;;;;;5.68;3.33;;;17.90;99.90;;;;;;5030629;28;20080;-73
2021/08/23 02:57:45;;;;;;;6.50;3.95;;;17.90;99.90;;;;;;5030413;28;20102;-73
2021/08/23 03:00:11;;;;;;;4.88;3.60;;;17.90;99.90;;;;;;5030358;28;20048;-72
2021/08/23 03:02:37;;;;;;;7.65;3.88;;;17.90;99.90;;;;;;5030610;28;20045;-72
2021/08/23 03:05:03;;;;;;;10.20;4.30;;;17.90;99.90;;;;;;5030768;28;20199;-73
2021/08/23 03:07:29;;;;;;;5.78;3.88;;;17.90;99.90;;;;;;5030337;28;20038;-72
2021/08/23 03:09:55;;;;;;;9.90;3.50;;;17.90;99.90;;;;;;5030277;28;20082;-72
2021/08/23 03:12:22;;;;;;;6.72;4.00;;;17.90;99.90;;;;;;5030134;28;20025;-72
2021/08/23 03:14:47;;;;;;;6.47;4.38;;;17.90;99.90;;;;;;5030055;28;20521;-72
2021/08/23 03:17:13;;;;;;;4.40;3.55;;;17.90;99.90;;;;;;5030494;28;20029;-73
2021/08/23 03:19:39;;;;;;;8.32;4.55;;;17.90;99.90;;;;;;5030034;28;20040;-73
2021/08/23 03:22:04;;;;;;;7.68;4.25;;;17.90;99.90;;;;;;5030037;28;20317;-72
2021/08/23 03:24:30;;;;;;;11.00;4.28;;;17.90;99.90;;;;;;5030015;28;20033;-73
2021/08/23 03:26:56;;;;;;;6.43;4.45;;;17.90;99.90;;;;;;5030203;28;20164;-73
2021/08/23 03:29:21;;;;;;;7.78;4.18;;;17.90;99.90;;;;;;5030207;28;20041;-72
2021/08/23 03:31:47;;;;;;;10.07;4.70;;;17.90;99.90;;;;;;5030597;28;20099;-72
2021/08/23 03:34:13;;;;;;;8.55;4.20;;;18.00;99.90;;;;;;5029990;28;20365;-72
2021/08/23 03:36:43;;;;;;;9.77;4.60;;;17.90;99.90;;;;;;5033171;28;20060;-72
2021/08/23 03:39:10;;;;;;;9.00;4.40;;;17.90;99.90;;;;;;5033249;28;20041;-72
2021/08/23 03:41:36;;;;;;;6.80;4.30;;;17.90;99.90;;;;;;5033573;28;20029;-73
2021/08/23 03:44:02;;;;;;;5.72;4.13;;;17.80;99.90;;;;;;5033835;28;20021;-73
2021/08/23 03:46:30;;;;;;;6.47;3.70;;;17.80;99.90;;;;;;5033319;28;20029;-73
2021/08/23 03:48:56;;;;;;;8.35;4.78;;;17.80;99.90;;;;;;5033631;28;20026;-73
2021/08/23 03:51:21;;;;;;;8.38;4.47;;;17.90;99.90;;;;;;5033404;28;20095;-73
2021/08/23 03:53:47;;;;;;;5.45;4.43;;;17.90;99.90;;;;;;5033198;28;20037;-73
2021/08/23 03:56:12;;;;;;;6.10;4.20;;;17.80;99.90;;;;;;5033812;28;20032;-72
2021/08/23 03:58:38;;;;;;;7.57;4.30;;;17.80;99.90;;;;;;5033138;28;20049;-73
2021/08/23 04:01:04;;;;;;;5.72;4.28;;;17.80;99.90;;;;;;5032964;28;20040;-73
2021/08/23 04:03:30;;;;;;;7.65;4.28;;;17.80;99.90;;;;;;5032804;28;20056;-72
2021/08/23 04:05:56;;;;;;;11.25;4.60;;;17.80;99.90;;;;;;5033257;28;20090;-73
2021/08/23 04:08:21;;;;;;;6.32;4.53;;;17.90;99.90;;;;;;5032795;28;20096;-72
2021/08/23 04:10:47;;;;;;;9.63;5.15;;;17.80;99.90;;;;;;5033540;28;20626;-72
2021/08/23 04:13:13;;;;;;;7.10;4.55;;;17.90;99.90;;;;;;5033068;28;20033;-72
2021/08/23 04:15:39;;;;;;;7.78;4.50;;;17.80;99.90;;;;;;5033036;28;20053;-72
2021/08/23 04:18:04;;;;;;;9.95;4.80;;;17.80;99.90;;;;;;5032578;28;20483;-74
2021/08/23 04:20:30;;;;;;;9.18;4.45;;;17.80;99.90;;;;;;5032752;28;20037;-73
2021/08/23 04:22:55;;;;;;;6.45;4.30;;;17.80;99.90;;;;;;5033207;28;20032;-73
2021/08/23 04:25:21;;;;;;;6.75;4.25;;;17.80;99.90;;;;;;5032643;28;20021;-72
2021/08/23 04:27:47;;;;;;;8.25;4.65;;;17.80;99.90;;;;;;5032683;28;20036;-72
2021/08/23 04:30:12;;;;;;;8.93;4.72;;;17.80;99.90;;;;;;5032912;28;20033;-72
2021/08/23 04:32:38;;;;;;;8.07;4.78;;;17.80;99.90;;;;;;5032693;28;20037;-73
2021/08/23 04:35:04;;;;;;;8.80;5.20;;;17.80;99.90;;;;;;5033349;28;20029;-73
2021/08/23 04:37:29;;;;;;;7.97;5.07;;;17.80;99.90;;;;;;5032433;28;20486;-72
2021/08/23 04:39:55;;;;;;;9.23;4.47;;;17.80;99.90;;;;;;5032396;28;20025;-72
2021/08/23 04:42:21;;;;;;;7.78;4.90;;;17.80;99.90;;;;;;5032161;28;20032;-72
2021/08/23 04:44:46;;;;;;;7.00;4.63;;;17.80;99.90;;;;;;5032233;28;20034;-73
2021/08/23 04:47:12;;;;;;;8.32;4.75;;;17.80;99.90;;;;;;5032727;28;20026;-73
2021/08/23 04:49:38;;;;;;;8.55;4.82;;;17.80;99.90;;;;;;5032464;28;20040;-74
2021/08/23 04:52:03;;;;;;;5.80;4.20;;;17.80;99.90;;;;;;5032396;28;20044;-73
2021/08/23 04:54:29;;;;;;;10.80;5.30;;;17.80;99.90;;;;;;5032249;28;20047;-73
2021/08/23 04:56:55;;;;;;;7.03;4.15;;;17.80;99.90;;;;;;5032208;28;20065;-74
2021/08/23 04:59:20;;;;;;;9.05;4.45;;;17.80;99.90;;;;;;5031996;28;20032;-73
2021/08/23 05:01:46;;;;;;;6.00;4.30;;;17.80;99.90;;;;;;5032351;28;20354;-74
2021/08/23 05:04:11;;;;;;;11.10;5.13;;;17.80;99.90;;;;;;5032056;28;20030;-73
2021/08/23 05:06:37;;;;;;;8.80;5.13;;;17.80;99.90;;;;;;5031820;28;20032;-73
2021/08/23 05:09:03;;;;;;;12.02;5.07;;;17.80;99.90;;;;;;5031806;28;20098;-73
2021/08/23 05:11:29;;;;;;;7.63;4.70;;;17.90;99.90;;;;;;5031489;28;20059;-72
2021/08/23 05:13:55;;;;;;;14.98;5.40;;;17.70;99.90;;;;;;5032333;28;20096;-73
2021/08/23 05:16:20;;;;;;;9.57;4.57;;;17.80;99.90;;;;;;5031623;28;20152;-73
2021/08/23 05:18:46;;;;;;;6.28;4.47;;;17.80;99.90;;;;;;5031639;28;20037;-73
2021/08/23 05:21:12;;;;;;;9.02;4.40;;;17.80;99.90;;;;;;5031916;28;20045;-74
2021/08/23 05:23:37;;;;;;;7.43;4.20;;;17.80;99.90;;;;;;5031748;28;20070;-73
2021/08/23 05:26:07;;;;;;;14.57;4.55;;;17.80;99.90;;;;;;5031954;28;20059;-73
2021/08/23 05:28:33;;;;;;;11.45;4.55;;;17.80;99.90;;;;;;5030735;28;20422;-73
2021/08/23 05:30:59;;;;;;;5.60;3.83;;;17.80;99.90;;;;;;5031650;28;20033;-74
2021/08/23 05:33:24;;;;;;;9.88;4.88;;;17.80;99.90;;;;;;5031877;28;20044;-78
2021/08/23 05:35:50;;;;;;;8.50;4.72;;;17.80;99.90;;;;;;5031487;28;20037;-74
2021/08/23 05:38:15;;;;;;;9.40;4.90;;;17.80;99.90;;;;;;5030846;28;20064;-76
2021/08/23 05:40:41;;;;;;;9.90;4.75;;;17.80;99.90;;;;;;5030332;28;20030;-73
2021/08/23 05:43:07;;;;;;;9.35;4.32;;;17.70;99.90;;;;;;5031109;28;20036;-72
2021/08/23 05:45:32;;;;;;;10.20;4.63;;;17.80;99.90;;;;;;5031207;28;20033;-71
2021/08/23 05:47:58;;;;;;;8.93;3.97;;;17.80;99.90;;;;;;5031146;28;20451;-72
2021/08/23 05:50:24;;;;;;;13.82;4.07;;;17.80;99.90;;;;;;5031098;28;20029;-72
2021/08/23 05:52:49;;;;;;;11.13;4.10;;;17.70;99.90;;;;;;5030280;28;20040;-72
2021/08/23 05:55:15;;;;;;;10.52;4.93;;;17.70;99.90;;;;;;5031218;28;20512;-72
2021/08/23 05:57:40;;;;;;;8.70;4.15;;;17.80;99.90;;;;;;5030094;28;20045;-72
2021/08/23 06:00:07;;;;;;;10.60;4.07;;;17.80;99.90;;;;;;5030851;28;20047;-72
2021/08/23 06:02:33;;;;;;;6.40;4.07;;;17.70;99.90;;;;;;5031090;28;20052;-77
2021/08/23 06:04:59;;;;;;;5.80;3.58;;;17.70;99.90;;;;;;5031828;28;20105;-76
2021/08/23 06:07:25;;;;;;;10.07;3.80;;;17.70;99.90;;;;;;5031307;28;20036;-77
2021/08/23 06:09:50;;;;;;;6.93;3.67;;;17.80;99.90;;;;;;5031415;28;20025;-76
2021/08/23 06:12:16;;;;;;;4.90;3.33;;;17.80;99.90;;;;;;5030890;28;20067;-76
2021/08/23 06:14:41;;;;;;;6.55;3.35;;;17.80;99.90;;;;;;5030718;28;20040;-77
2021/08/23 06:17:08;;;;;;;12.35;3.92;;;17.80;99.90;;;;;;5031909;28;20032;-76
2021/08/23 06:19:34;;;;;;;7.50;3.42;;;17.80;99.90;;;;;;5030981;28;20097;-77
2021/08/23 06:22:00;;;;;;;7.47;3.30;;;17.80;99.90;;;;;;5030682;28;20490;-74
2021/08/23 06:24:25;;;;;;;5.07;3.00;;;17.80;99.90;;;;;;5029806;28;20355;-76
2021/08/23 06:26:51;;;;;;;5.13;3.30;;;17.90;99.90;;;;;;5029547;28;20040;-76
2021/08/23 06:29:17;;;;;;;5.22;2.50;;;17.90;99.90;;;;;;5029850;28;20029;-76
2021/08/23 06:31:42;;;;;;;8.48;3.28;;;17.90;99.90;;;;;;5030777;28;20030;-78
2021/08/23 06:34:08;;;;;;;8.98;3.10;;;17.90;99.90;;;;;;5030836;28;20495;-80
2021/08/23 06:36:35;;;;;;;15.50;10.13;;;17.90;99.90;;;;;;5030893;28;20034;-79
2021/08/23 06:39:00;;;;;;;11.15;3.65;;;17.90;99.90;;;;;;5030921;28;20089;-79
2021/08/23 06:41:28;;;;;;;4.82;3.40;;;18.00;99.90;;;;;;5030382;28;20029;-75
2021/08/23 06:43:54;;;;;;;5.25;3.33;;;18.00;99.90;;;;;;5030936;28;20456;-76
2021/08/23 06:46:19;;;;;;;5.47;3.00;;;18.00;99.90;;;;;;5030600;28;20041;-77
2021/08/23 06:48:45;;;;;;;12.00;3.35;;;18.00;99.90;;;;;;5030639;28;20052;-78
2021/08/23 06:51:12;;;;;;;8.20;3.40;;;18.10;99.90;;;;;;5030620;28;20037;-79
2021/08/23 06:53:38;;;;;;;7.43;2.65;;;18.10;99.90;;;;;;5029417;28;20057;-77
2021/08/23 06:56:04;;;;;;;5.80;2.90;;;18.10;99.90;;;;;;5030921;28;20094;-79
2021/08/23 06:58:29;;;;;;;6.50;2.58;;;18.10;99.90;;;;;;5030177;28;20420;-77
2021/08/23 07:00:55;;;;;;;7.40;3.45;;;18.10;99.90;;;;;;5030288;28;20058;-77
2021/08/23 07:03:20;;;;;;;7.32;4.53;;;18.10;99.90;;;;;;5030819;28;20084;-80
2021/08/23 07:05:46;;;;;;;14.27;2.80;;;18.10;99.90;;;;;;5030508;28;20033;-79
2021/08/23 07:08:13;;;;;;;8.30;3.13;;;18.10;99.90;;;;;;5031195;28;20026;-79
2021/08/23 07:10:39;;;;;;;7.40;3.05;;;18.10;99.90;;;;;;5033932;28;20518;-79
2021/08/23 07:13:04;;;;;;;9.23;2.92;;;18.10;99.90;;;;;;5034221;28;20033;-77
2021/08/23 07:15:30;;;;;;;7.25;3.40;;;18.20;99.90;;;;;;5034286;28;20133;-74
2021/08/23 07:17:55;;;;;;;7.18;3.55;;;18.20;99.90;;;;;;5033982;28;20048;-74
2021/08/23 07:20:21;;;;;;;10.80;3.85;;;18.10;99.90;;;;;;5033769;28;20025;-75
2021/08/23 07:22:47;;;;;;;8.27;3.05;;;18.10;99.90;;;;;;5034399;28;20037;-77
2021/08/23 07:25:12;;;;;;;9.23;3.30;;;18.10;99.90;;;;;;5033915;28;20033;-75
2021/08/23 07:27:38;;;;;;;9.55;3.13;;;18.10;99.90;;;;;;5034096;28;20026;-75
2021/08/23 07:30:05;;;;;;;6.13;2.45;;;18.10;99.90;;;;;;5033931;28;20036;-75
2021/08/23 07:32:31;;;;;;;7.32;2.80;;;18.10;99.90;;;;;;5033467;28;20022;-74
2021/08/23 07:34:57;;;;;;;4.30;2.42;;;18.10;99.90;;;;;;5034582;28;20482;-74
2021/08/23 07:37:22;;;;;;;6.55;2.67;;;18.10;99.90;;;;;;5034060;28;20149;-74
2021/08/23 07:39:48;;;;;;;9.95;2.70;;;18.10;99.90;;;;;;5033471;28;20041;-75
2021/08/23 07:42:14;;;;;;;12.18;3.47;;;18.10;99.90;;;;;;5032946;28;20057;-75
2021/08/23 07:44:40;;;;;;;4.53;2.20;;;18.10;99.90;;;;;;5033659;28;20036;-75
2021/08/23 07:47:06;;;;;;;6.38;2.90;;;18.10;99.90;;;;;;5034109;28;20406;-76
2021/08/23 07:49:32;;;;;;;10.60;3.63;;;18.20;99.90;;;;;;5032326;28;20029;-78
2021/08/23 07:51:57;;;;;;;8.40;4.65;;;18.20;99.90;;;;;;5033009;28;20524;-72
2021/08/23 07:54:23;;;;;;;5.10;2.75;;;18.20;99.90;;;;;;5033284;28;20037;-73
2021/08/23 07:56:49;;;;;;;9.50;2.30;;;18.20;99.90;;;;;;5031786;28;20087;-76
2021/08/23 07:59:14;;;;;;;6.65;2.60;;;18.20;99.90;;;;;;5034018;28;20048;-76
2021/08/23 08:01:40;;;;;;;5.82;2.30;;;18.40;99.90;;;;;;5033319;28;20438;-75
2021/08/23 08:04:06;;;;;;;7.68;2.10;;;18.40;99.90;;;;;;5033271;28;20021;-77
2021/08/23 08:06:32;;;;;;;8.68;2.38;;;18.50;99.90;;;;;;5033107;28;20030;-74
2021/08/23 08:08:57;;;;;;;10.40;2.80;;;18.50;99.90;;;;;;5033821;28;20068;-76
2021/08/23 08:11:23;;;;;;;6.32;2.63;;;18.60;99.90;;;;;;5034041;28;20430;-76
2021/08/23 08:13:48;;;;;;;4.07;2.13;;;18.60;99.90;;;;;;5033581;28;20034;-74
2021/08/23 08:16:14;;;;;;;9.93;3.17;;;18.70;99.90;;;;;;5033208;28;20025;-76
2021/08/23 08:18:40;;;;;;;6.72;3.40;;;18.90;99.90;;;;;;5032656;28;20089;-76
2021/08/23 08:21:06;;;;;;;11.27;3.35;;;19.00;99.90;;;;;;5032156;28;20424;-75
2021/08/23 08:23:31;;;;;;;4.88;2.25;;;19.10;99.90;;;;;;5032713;28;20025;-75
2021/08/23 08:25:57;;;;;;;9.45;3.17;;;19.30;99.90;;;;;;5032616;28;20470;-81
2021/08/23 08:28:23;;;;;;;6.05;3.20;;;19.30;99.90;;;;;;5032741;28;20034;-74
2021/08/23 08:30:49;;;;;;;6.75;2.53;;;19.40;99.90;;;;;;5032583;28;20064;-74
2021/08/23 08:33:15;;;;;;;9.35;3.50;;;19.40;99.90;;;;;;5031696;28;20391;-76
2021/08/23 08:35:41;;;;;;;8.88;3.50;;;19.50;99.90;;;;;;5032730;28;20033;-76
2021/08/23 08:38:07;;;;;;;5.78;3.35;;;19.60;99.90;;;;;;5033171;28;20032;-75
2021/08/23 08:40:33;;;;;;;7.82;2.90;;;19.80;99.70;;;;;;5033053;28;20081;-74
2021/08/23 08:42:58;;;;;;;7.35;2.97;;;19.80;99.60;;;;;;5032426;28;20026;-75
2021/08/23 08:45:26;;;;;;;5.63;2.58;;;19.90;99.70;;;;;;5032605;28;20025;-73
2021/08/23 08:47:54;;;;;;;11.43;7.50;;;20.10;99.50;;;;;;5031200;28;20117;-75
2021/08/23 08:50:22;;;;;;;10.63;5.45;;;20.10;99.30;;;;;;5032328;28;20052;-75
2021/08/23 08:52:48;;;;;;;9.35;3.50;;;20.10;99.20;;;;;;5031784;28;20032;-75
2021/08/23 08:55:15;;;;;;;6.18;2.22;;;20.20;99.20;;;;;;5031396;28;20037;-76
2021/08/23 08:57:41;;;;;;;6.53;2.75;;;20.20;99.00;;;;;;5032231;28;20499;-77
2021/08/23 09:00:08;;;;;;;8.52;2.80;;;20.10;99.00;;;;;;5031907;28;20132;-76
2021/08/23 09:02:34;;;;;;;5.88;2.78;;;20.10;99.20;;;;;;5031919;28;20033;-77
2021/08/23 09:05:04;;;;;;;6.95;2.65;;;20.10;99.20;;;;;;5032399;28;20036;-74
2021/08/23 09:07:37;;;;;;;5.05;2.00;;;20.30;99.00;;;;;;5032124;28;20462;-76
2021/08/23 09:10:17;;;;;;;5.45;2.80;;;20.50;98.60;;;;;;5030863;28;20396;-76
2021/08/23 09:12:43;;;;;;;3.50;2.17;;;21.10;98.30;;;;;;5031462;28;20124;-76
2021/08/23 09:15:09;;;;;;;8.00;2.97;;;21.60;97.80;;;;;;5031602;28;20156;-77
2021/08/23 09:17:34;;;;;;;5.57;2.40;;;21.90;97.10;;;;;;5031666;28;20359;-76
2021/08/23 09:20:05;;;;;;;4.68;2.42;;;21.90;96.70;;;;;;5031808;28;20033;-77
2021/08/23 09:22:31;;;;;;;4.57;3.00;;;22.00;96.30;;;;;;5030403;28;20036;-75
2021/08/23 09:25:10;;;;;;;4.50;2.33;;;22.20;96.40;;;;;;5031516;28;20054;-77
2021/08/23 09:27:38;;;;;;;6.22;2.63;;;22.40;96.20;;;;;;5030442;28;20037;-75
2021/08/23 09:30:07;;;;;;;5.28;2.25;;;22.40;95.90;;;;;;5031340;28;20045;-76
2021/08/23 09:32:51;;;;;;;4.38;2.45;;;22.70;96.20;;;;;;5030159;28;20033;-75
2021/08/23 09:35:26;;;;;;;5.72;2.58;;;23.30;95.00;;;;;;5030511;28;20029;-78
2021/08/23 09:37:51;;;;;;;4.85;2.30;;;23.80;94.70;;;;;;5031301;28;20113;-77
2021/08/23 09:40:23;;;;;;;6.85;2.42;;;23.70;93.60;;;;;;5031344;28;20412;-77
2021/08/23 09:42:56;;;;;;;5.93;2.55;;;23.70;93.70;;;;;;5031125;28;20356;-78
2021/08/23 09:45:22;;;;;;;6.50;2.55;;;23.90;93.30;;;;;;5030991;28;20060;-72
2021/08/23 09:48:01;;;;;;;6.68;2.75;;;24.10;93.20;;;;;;5031116;28;20482;-76
2021/08/23 09:50:38;;;;;;;4.18;2.45;;;24.20;92.50;;;;;;5030897;28;20576;-75
2021/08/23 09:53:15;;;;;;;4.35;2.40;;;24.60;92.40;;;;;;5031156;28;20150;-75
2021/08/23 09:55:48;;;;;;;7.18;2.40;;;24.90;91.90;;;;;;5030792;28;20029;-75
2021/08/23 09:58:16;;;;;;;5.97;2.17;;;25.10;91.00;;;;;;5029689;28;20428;-76
2021/08/23 10:00:44;;;;;;;5.07;1.83;;;25.20;91.20;;;;;;5030995;28;20101;-78
2021/08/23 10:03:15;;;;;;;4.18;2.22;;;25.50;91.10;;;;;;5030611;28;20049;-75
2021/08/23 10:05:49;;;;;;;2.65;1.80;;;25.60;90.90;;;;;;5030987;28;20029;-77
2021/08/23 10:08:17;;;;;;;7.80;2.00;;;25.60;89.70;;;;;;5031146;28;20021;-77
2021/08/23 10:10:44;;;;;;;7.82;2.25;;;25.50;88.10;;;;;;5030965;28;20034;-76
2021/08/23 10:13:10;;;;;;;3.53;2.05;;;25.40;89.00;;;;;;5029548;28;20091;-77
2021/08/23 10:15:38;;;;;;;7.55;2.53;;;25.30;88.50;;;;;;5030492;28;20559;-74
2021/08/23 10:18:05;;;;;;;2.75;1.83;;;25.20;87.70;;;;;;5030598;28;20145;-75
2021/08/23 10:20:30;;;;;;;4.63;1.92;;;25.10;88.00;;;;;;5030215;28;20434;-75
2021/08/23 10:22:58;;;;;;;7.88;2.40;;;24.90;87.50;;;;;;5031609;28;20057;-76
2021/08/23 10:25:24;;;;;;;5.45;2.03;;;24.80;88.80;;;;;;5030343;28;20045;-75
2021/08/23 10:27:49;;;;;;;5.68;1.50;;;24.90;87.50;;;;;;5030252;28;20395;-76
2021/08/23 10:30:26;;;;;;;7.95;2.15;;;25.20;88.70;;;;;;5029087;28;20045;-77
2021/08/23 10:32:52;;;;;;;11.05;1.90;;;25.80;86.90;;;;;;5029353;28;20034;-76
2021/08/23 10:35:25;;;;;;;3.97;1.92;;;26.50;84.50;;;;;;5030251;28;20026;-77
2021/08/23 10:37:53;;;;;;;7.13;3.85;;;26.90;81.60;;;;;;5029848;28;20029;-77
2021/08/23 10:40:24;;;;;;;5.38;2.95;;;26.90;80.10;;;;;;5030182;28;20034;-77
2021/08/23 10:42:50;;;;;;;4.43;1.50;;;26.30;79.30;;;;;;5030513;28;20021;-76
2021/08/23 10:45:18;;;;;;;3.28;1.50;;;26.00;80.40;;;;;;5033614;28;20163;-76
2021/08/23 10:47:44;;;;;;;;;;;26.50;80.50;;;;;;5035019;28;20060;-76
2021/08/23 10:50:20;;;;;;;5.75;3.03;;;26.80;78.60;;;;;;5050175;28;19959;-76
2021/08/23 10:52:48;;;;;;;3.55;1.33;;;26.80;78.70;;;;;;5034429;28;20221;-76
2021/08/23 10:55:20;;;;;;;5.20;1.77;;;26.70;76.40;;;;;;5033980;28;20042;-74
2021/08/23 10:57:46;;;;;;;4.50;1.05;;;26.60;75.10;;;;;;5034034;28;20543;-78
2021/08/23 11:00:17;;;;;;;2.63;1.52;;;26.30;76.50;;;;;;5034049;28;20137;-76
2021/08/23 11:02:42;;;;;;;3.33;1.33;;;26.40;76.10;;;;;;5033945;28;20029;-75
2021/08/23 11:05:20;;;;;;;2.72;1.38;;;26.30;75.00;;;;;;5033417;28;20519;-76
2021/08/23 11:07:59;;;;;;;2.17;1.27;;;26.40;74.70;;;;;;5034307;28;20033;-74
2021/08/23 11:10:26;;;;;;;3.30;1.20;;;26.20;74.50;;;;;;5033796;28;20029;-76
2021/08/23 11:12:54;;;;;;;3.10;1.38;;;26.00;74.90;;;;;;5033920;28;20036;-76
2021/08/23 11:15:31;;;;;;;2.67;1.58;;;26.00;75.10;;;;;;5032412;28;20037;-73
2021/08/23 11:18:04;;;;;;;2.10;1.27;;;26.10;74.30;;;;;;5034002;28;20045;-76
2021/08/23 11:20:33;;;;;;;4.82;1.60;;;25.80;75.00;;;;;;5033486;28;20607;-77
2021/08/23 11:23:00;;;;;;;5.15;1.30;;;25.90;75.50;;;;;;5034532;28;20057;-76
2021/08/23 11:25:44;;;;;;;3.33;1.20;;;25.70;74.20;;;;;;5033852;28;20121;-75
2021/08/23 11:28:13;;;;;;;3.38;1.00;;;25.80;74.00;;;;;;5033797;28;20411;-75
2021/08/23 11:30:44;;;;;;;5.00;1.08;;;25.80;72.90;;;;;;5033780;28;20507;-75
2021/08/23 11:33:25;;;;;;;1.27;0.95;;;25.90;71.70;;;;;;5033635;28;20055;-76
2021/08/23 11:35:50;;;;;;;2.72;1.00;;;25.80;71.50;;;;;;5033482;28;20045;-75
2021/08/23 11:38:16;;;;;;;4.47;1.08;;;25.80;70.00;;;;;;5032746;28;20087;-75
2021/08/23 11:40:44;;;;;;;2.72;1.23;;;25.70;71.20;;;;;;5033427;28;20037;-75
2021/08/23 11:43:10;;;;;;;1.80;0.95;;;25.70;70.90;;;;;;5033039;28;20095;-76
2021/08/23 11:45:41;;;;;;;4.07;1.15;;;25.70;71.90;;;;;;5033181;28;20034;-74
2021/08/23 11:48:09;;;;;;;2.40;1.52;;;25.60;72.40;;;;;;5033473;28;20033;-75
2021/08/23 11:50:35;;;;;;;1.85;1.00;;;25.50;71.20;;;;;;5032357;28;20099;-76
2021/08/23 11:53:07;;;;;;;2.45;1.17;;;25.40;72.20;;;;;;5033607;28;20434;-75
2021/08/23 11:55:40;;;;;;;5.13;1.20;;;25.30;73.00;;;;;;5030828;28;20042;-76
2021/08/23 11:58:19;;;;;;;1.17;0.95;;;25.50;72.20;;;;;;5033030;28;20133;-77
2021/08/23 12:00:50;;;;;;;5.88;1.38;;;25.70;71.40;;;;;;5033104;28;20061;-77
2021/08/23 12:03:17;;;;;;;4.72;1.60;;;25.70;72.10;;;;;;5033094;28;20501;-77
2021/08/23 12:05:44;;;;;;;8.25;5.00;;;25.80;72.20;;;;;;5033153;28;20045;-77
2021/08/23 12:08:21;;;;;;;1.95;1.00;;;25.60;70.60;;;;;;5033841;28;20061;-77
2021/08/23 12:11:10;;;;;;;1.60;0.90;;;25.60;70.60;;;;;;5032188;28;20460;-78
2021/08/23 12:13:37;;;;;;;2.80;1.00;;;25.60;70.20;;;;;;5032980;28;20266;-76
2021/08/23 12:16:15;;;;;;;3.47;1.10;;;25.50;70.80;;;;;;5032781;28;20061;-76
2021/08/23 12:18:48;;;;;;;2.05;1.10;;;25.60;70.10;;;;;;5033031;28;20059;-77
2021/08/23 12:21:18;;;;;;;4.60;1.70;;;25.50;70.30;;;;;;5031436;28;20379;-76
2021/08/23 12:23:48;;;;;;;6.35;1.35;;;25.60;69.10;;;;;;5032702;28;20103;-77
2021/08/23 12:26:15;;;;;;;1.10;0.95;;;25.50;69.90;;;;;;5032817;28;20117;-76
2021/08/23 12:28:51;;;;;;;0.82;0.55;;;25.50;69.00;;;;;;5032510;28;20372;-76
2021/08/23 12:31:18;;;;;;;3.17;1.40;;;25.50;67.60;;;;;;5032475;28;20147;-75
2021/08/23 12:33:44;;;;;;;3.65;1.17;;;25.50;67.50;;;;;;5031399;28;20471;-76
2021/08/23 12:36:09;;;;;;;3.55;1.40;;;25.40;65.90;;;;;;5032662;28;20034;-76
2021/08/23 12:38:35;;;;;;;3.35;1.15;;;25.10;66.80;;;;;;5032352;28;20048;-77
2021/08/23 12:41:00;;;;;;;7.03;1.65;;;25.20;67.10;;;;;;5032713;28;20033;-77
2021/08/23 12:43:26;;;;;;;1.48;1.15;;;25.20;67.40;;;;;;5032404;28;20026;-76
2021/08/23 12:45:52;;;;;;;4.20;1.45;;;25.30;66.90;;;;;;5032582;28;20041;-77